Boyd, Montana
Current Conditions -  °F | °C
As of 9:53 PM on Saturday 20 Dec 2014 (Local Time) from KBIL Reporting Station
Few Clouds Few Clouds  
Wind Chill: 23°   Ceiling: Unl
Heat Index: 32°   Visibility: 10mi
Dew Point: 21°   Wind: 12mph
Humidity: 64%   Direction: 220°SW
Pressure: 29.7"   Gusts: NA
Location:  45.46°N, 109.06°W
Report Text: KBIL 210453Z 22010KT 10SM FEW080 00/M06 A2970 RMK AO2 SLP081 T00001061
Loading
Personal Weather Stations






























Interactive Weather Map New forecast layout! Learn more

10-Day Weather Forecast

Advertisements
Track Severe Weather on mobile